Tiempo atmosférico en la estación meteorológica de Badajoz Aeropuerto, Badajoz (185 m.)



Fecha
DESCASC
Temp. máxima en grados centígrados (hora)
DESCASC
Temp. mínima en grados centígrados (hora)
DESCASC
Temp. media en grados centígrados
DESCASC
Racha de viento máxima en m/sg (hora)
DESCASC
Velocidad máxima media en intervalos de 10 minutos(hora)
DESCASC
Precipitaciones diarias en mm
DESCASC
Precipitaciones de 00:00 a 06:00 en mm
DESCASC
Precipitaciones de 06:00 a 12:00 en mm
DESCASC
Precipitaciones de 12:00 a 18:00 en mm
DESCASC
Precipitaciones de 18:00 a 24:00 en mm
DESCASC
06-12-2018 19.4 (16:30) 4.2 (08:00) 11.8 3.33 (12:40) 2.22 (12:40) 0 0 0 0 0
05-12-2018 19.2 (17:00) 5.5 (08:50) 12.4 3.61 (15:00) 2.22 (14:10) 0.2 0 0 0.2 0
04-12-2018 18.6 (16:30) 7.9 (09:40) 13.3 5.28 (01:40) 3.61 (03:20) 0 0 0 0 0
03-12-2018 10.8 (16:40) 5.2 (00:00) 8 6.11 (13:50) 4.17 (12:40) 0.2 0.2 0 0 0
02-12-2018 13.3 (16:50) 4.3 (00:00) 8.8 3.61 (15:10) 2.22 (15:00) 0 0 0 0 0
01-12-2018 15.1 (15:20) 3 (00:00) 9.1 4.44 (15:30) 2.5 (15:30) 0 0 0 0 0
30-11-2018 14.6 (16:00) 7.5 (00:00) 11.1 5.56 (01:20) 3.89 (01:50) 0 0 0 0 0
29-11-2018 14.7 (15:10) 1.2 (00:00) 7.9 7.22 (17:10) 3.61 (17:10) 7.4 0 0 0 7.4
28-11-2018 16.6 (16:00) 1.7 (00:00) 9.2 3.89 (12:20) 2.22 (11:30) 0 0 0 0 0
27-11-2018 15.7 (16:30) 4.6 (00:00) 10.1 3.33 (14:00) 2.22 (11:30) 0 0 0 0 0
26-11-2018 15.8 (15:30) 8.4 (23:59) 12.1 10.28 (14:00) 6.67 (14:00) 0 0 0 0 0
25-11-2018 16.4 (15:40) 12.2 (00:00) 14.3 14.44 (22:20) 7.5 (23:40) 6.4 0 0.2 0.4 5.8
24-11-2018 16.5 (15:40) 4.9 (00:00) 10.7 10 (22:50) 5.28 (22:40) 0.4 0 0 0 0.4
23-11-2018 16 (15:00) 7.5 (00:00) 11.8 5.83 (15:10) 3.06 (16:10) 1.8 1.8 0 0 0
22-11-2018 14 (13:50) 7.2 (00:00) 10.6 6.11 (22:30) 3.33 (18:10) 4.6 0 0 1.8 2.8
21-11-2018 17.2 (14:40) 9.1 (00:00) 13.2 11.67 (15:20) 5 (15:30) 0.2 0.2 0 0 0
20-11-2018 16.2 (13:00) 8.7 (00:00) 12.5 11.67 (16:00) 6.11 (16:10) 0.4 0 0.2 0.2 0
19-11-2018 17 (16:30) 7.7 (00:00) 12.3 5.56 (16:40) 2.78 (16:40) 0 0 0 0 0
18-11-2018 14.7 (03:20) 10.3 (00:00) 12.5 10 (10:40) 6.94 (11:00) 13.6 0 11.2 2.4 0
17-11-2018 21.2 (14:10) 9.1 (00:00) 15.2 8.06 (12:40) 5.83 (12:30) 0 0 0 0 0
16-11-2018 20.9 (15:00) 8.5 (00:00) 14.7 5.56 (15:00) 3.89 (11:20) 0 0 0 0 0
15-11-2018 21 (15:20) 11.7 (00:00) 16.3 6.67 (05:00) 4.72 (05:00) 0 0 0 0 0
14-11-2018 20.3 (14:20) 8.7 (00:00) 14.5 7.22 (12:50) 5.28 (11:50) 0 0 0 0 0
13-11-2018 18.4 (16:30) 9.1 (00:00) 13.8 5 (13:20) 3.06 (11:50) 0 0 0 0 0
12-11-2018 15 (15:10) 9.5 (00:00) 12.3 4.44 (05:30) 3.06 (05:30) 4.6 4.6 0 0 0
11-11-2018 20.9 (15:10) 11.5 (00:00) 16.2 13.61 (19:10) 8.61 (19:10) 11.6 2 0 0 9.6
10-11-2018 18.8 (14:30) 14 (00:00) 16.4 11.67 (12:20) 4.72 (14:30) 1.2 0 0 0 1.2

Gráficas

Temp. máximas Temp. mínimas Temp. medias Precipitaciones Rachas de viento máximas Velocidades máximas media en intervalos de 10 minutos

Datos horarios

Fecha y hora oficial Temperatura (ºC) Velocidad del viento (km/h) Dirección del viento Racha (km/h) Dirección de racha Precipitación (mm) Presión (hPa) Tendencia (hPa) Humedad (%)
2018-12-09 23:00:00 8 3 Este 5 Este 0 1007.9 0.2 98
2018-12-09 22:00:00 8.7 4 Sudeste 5 Sudeste 0 1008 0.7 98
2018-12-09 21:00:00 9.2 0 Calma 3 Noroeste 0 1007.8 1 96
2018-12-09 20:00:00 10.3 0 Calma 4 Sur 0 1007.7 1 93
2018-12-09 19:00:00 11.7 0 Calma 4 Oeste 0 1007.3 0.5 91
2018-12-09 18:00:00 13.3 0 Calma 4 Sudeste 0 1006.8 -0.5 88
2018-12-09 17:00:00 14.6 3 Sudeste 7 Este 0 1006.7 -1.2 83
2018-12-09 16:00:00 14.3 4 Este 8 Sudeste 0 1006.8 -2 84
2018-12-09 15:00:00 12.2 4 Sudeste 10 Sudeste 0 1007.3 -2.3 98
2018-12-09 14:00:00 10.2 4 Sudeste 10 Este 0 1007.9 -1.9 100
2018-12-09 13:00:00 9.2 5 Nordeste 10 Nordeste 0 1008.8 -0.4 100
2018-12-09 12:00:00 8 5 Nordeste 13 Este 0 1009.6 0.8 100
2018-12-09 11:00:00 7.2 6 Nordeste 13 Nordeste 0 1009.8 1.1 100
2018-12-09 10:00:00 6.7 6 Este 10 Sudeste 0 1009.2 0.8 100
2018-12-09 09:00:00 6.4 7 Nordeste 12 Nordeste 0 1008.8 0.5 100
2018-12-09 08:00:00 6.5 7 Nordeste 12 Este 0 1008.7 0.3 100
2018-12-09 07:00:00 6.2 8 Nordeste 14 Nordeste 0 1008.4 -0.4 100
2018-12-09 06:00:00 6.9 9 Este 12 Nordeste 0 1008.3 -0.5 100
2018-12-09 05:00:00 7.1 8 Este 13 Este 0 1008.4 -0.6 100
2018-12-09 04:00:00 7.8 7 Este 12 Este 0 1008.8 -0.7 100
2018-12-09 03:00:00 7.9 9 Este 14 Este 0 1008.8 -0.6 100
2018-12-09 02:00:00 8.5 6 Este 11 Nordeste 0 1009 -0.4 100
2018-12-09 01:00:00 8.6 6 Este 11 Este 0 1009.5 0.4 100
2018-12-09 00:00:00 8.5 6 Este 10 Este 0 1009.4 0.3 99
2018-12-08 23:00:00 7.5 2 Norte 7 Este 0 1009.4 0.5 99
2018-12-08 22:00:00 7.7 2 Sur 9 Este 0 1009.1 0.7 98
2018-12-08 21:00:00 8 3 Este 8 Nordeste 0 1009.1 1.2 98
2018-12-08 20:00:00 8.4 7 Este 8 Este 0 1008.9 1 96
2018-12-08 19:00:00 9.4 8 Este 14 Este 0 1008.4 0.7 93
2018-12-08 18:00:00 11.1 9 Este 15 Este 0 1007.9 0.3 92
2018-12-08 17:00:00 12.6 11 Este 17 Este 0 1007.9 -0.3 86
2018-12-08 16:00:00 13.8 13 Este 18 Sudeste 0 1007.7 -0.9 83
2018-12-08 15:00:00 13.1 11 Este 15 Este 0 1007.6 -1.5 86
2018-12-08 14:00:00 13.1 6 Este 10 Este 0 1008.2 -0.7 88
2018-12-08 13:00:00 11.4 4 Norte 11 Norte 0 1008.6 0.2 96
2018-12-08 12:00:00 10.8 4 Norte 10 Norte 0 1009.1 0.9 100
2018-12-08 11:00:00 10.3 4 Nordeste 6 Norte 0 1008.9 0.9 100
2018-12-08 10:00:00 9.8 3 Norte 5 Noroeste 0 1008.4 0.8 100
2018-12-08 09:00:00 9.1 0 Calma 4 Este 0 1008.2 1.1 100
2018-12-08 08:00:00 8.3 3 Este 5 Norte 0 1008 0.4 100
2018-12-08 07:00:00 8.1 2 Nordeste 8 Oeste 0 1007.6 -0.2 100
2018-12-08 06:00:00 8.8 3 Sudoeste 7 Oeste 0 1007.1 -0.8 100
2018-12-08 05:00:00 4.6 0 Calma 5 Nordeste 0 1007.6 -0.4 98
2018-12-08 04:00:00 5.5 2 Nordeste 7 Oeste 0 1007.8 -0.6 95
2018-12-08 03:00:00 8.5 4 Sudoeste 11 Sudoeste 0 1007.9 -0.4 97
2018-12-08 02:00:00 8.6 3 Sudoeste 9 Oeste 0 1008 -0.5 97
2018-12-08 01:00:00 8.6 4 Sudoeste 9 Sudoeste 0 1008.4 -0.2 97
2018-12-08 00:00:00 9.4 6 Oeste 12 Oeste 0 1008.3 -0.1 96
2018-12-07 23:00:00 9.7 4 Sudoeste 10 Oeste 0 1008.5 0.7 96
2018-12-07 22:00:00 10.1 5 Sudoeste 12 Sudoeste 0 1008.6 1.1 95
2018-12-07 21:00:00 10.2 4 Sudoeste 14 Sudoeste 0 1008.4 1.1 95
2018-12-07 20:00:00 10.5 6 Sudoeste 11 Sudoeste 0 1007.8 0.7 96
2018-12-07 19:00:00 11.1 4 Sudoeste 18 Oeste 0 1007.5 1 94
2018-12-07 18:00:00 11.6 12 Oeste 21 Oeste 0 1007.3 0.2 94
2018-12-07 17:00:00 12.3 18 Noroeste 24 Noroeste 0 1007.1 -0.5 91
2018-12-07 16:00:00 13 10 Oeste 19 Oeste 0 1006.5 -2 88
2018-12-07 15:00:00 10.3 6 Oeste 13 Oeste 0 1007.1 -1.7 98
2018-12-07 14:00:00 8.7 4 Oeste 9 Sudoeste 0 1007.6 -1.5 100
2018-12-07 13:00:00 7.9 5 Oeste 10 Noroeste 0 1008.5 0.5 100
2018-12-07 12:00:00 6.7 3 Sudoeste 9 Sur 0 1008.8 1.6 100
2018-12-07 11:00:00 5.7 3 Oeste 13 Noroeste 0 1009.1 2.2 100
2018-12-07 10:00:00 4.6 3 Nordeste 7 Nordeste 0 1008 1.6 100
2018-12-07 09:00:00 4.4 3 Este 6 Norte 0 1007.2 0.7 100
2018-12-07 08:00:00 4.6 3 Norte 5 Este 0 1006.9 0.7 100
2018-12-07 07:00:00 4.9 2 Sudeste 7 Este 0 1006.4 0 100
2018-12-07 06:00:00 5.1 2 Nordeste 5 Este 0 1006.5 0.1 100
2018-12-07 05:00:00 5.3 4 Este 7 Este 0 1006.2 -0.2 99
2018-12-07 04:00:00 5.6 3 Este 7 Este 0 1006.4 -0.2 100
2018-12-07 03:00:00 5.7 0 Calma 5 Oeste 0 1006.4 -0.2 99
2018-12-07 02:00:00 6.1 2 Oeste 4 Oeste 0 1006.4 -0.2 99
2018-12-07 01:00:00 7 2 Sudoeste 3 Sudoeste 0 1006.6 0.2 98
2018-12-07 00:00:00 7.4 2 Nordeste 4 Norte 0 1006.6 0.2 97
2018-12-06 23:00:00 8.8 0 Calma 3 Este 0 1006.6 0.4 96
2018-12-06 22:00:00 9.6 2 Sudeste 7 Oeste 0 1006.4 0.4 92
2018-12-06 21:00:00 10.7 2 Oeste 3 Sur 0 1006.4 0.5 92
2018-12-06 20:00:00 12 0 Calma 5 Sur 0 1006.2 0.4 88
2018-12-06 19:00:00 14 4 Sur 5 Sur 0 1006 0.1 83
2018-12-06 18:00:00 17.2 0 Calma 2 Noroeste 0 1005.9 -0.5 73
2018-12-06 17:00:00 18.6 3 Norte 4 Nordeste 0 1005.8 -1.2 66
2018-12-06 16:00:00 19 2 Sur 7 Nordeste 0 1005.9 -1.7 65
2018-12-06 15:00:00 17.6 2 Este 8 Este 0 1006.4 -2 70
2018-12-06 14:00:00 14.8 6 Este 10 Este 0 1007 -1.5 82
2018-12-06 13:00:00 11.2 6 Este 12 Este 0 1007.6 -0.4 100
2018-12-06 12:00:00 8.2 6 Este 8 Este 0 1008.4 1 100
2018-12-06 11:00:00 6 3 Nordeste 5 Nordeste 0 1008.5 1.6 100
2018-12-06 10:00:00 5.1 2 Nordeste 5 Este 0 1008 1.6 100
2018-12-06 09:00:00 4.4 3 Nordeste 5 Nordeste 0 1007.4 1.1 100
2018-12-06 08:00:00 4.2 2 Este 5 Norte 0 1006.9 0.6 100
2018-12-06 07:00:00 4.8 0 Calma 5 Sudeste 0 1006.4 0.1 100
2018-12-06 06:00:00 4.6 2 Sur 4 Sur 0 1006.3 0 99
2018-12-06 05:00:00 4.5 3 Norte 5 Nordeste 0 1006.3 -0.1 99
2018-12-06 04:00:00 5 0 Calma 3 Noroeste 0 1006.3 -0.1 99
2018-12-06 03:00:00 6 3 Sudoeste 5 Sur 0 1006.3 -0.1 98
2018-12-06 02:00:00 6.2 2 Este 4 Sudeste 0 1006.4 0.4 97
2018-12-06 01:00:00 7.1 0 Calma 6 Sudoeste 0 1006.4 0.7 96
2018-12-06 00:00:00 8.1 3 Sudoeste 5 Sudoeste 0 1006.4 1.4 96
2018-12-05 23:00:00 8.7 0 Calma 6 Sur 0 1006 1.5 96
2018-12-05 22:00:00 9.4 2 Sudoeste 9 Norte 0 1005.7 1.4 96
2018-12-05 21:00:00 9.7 2 Norte 6 Sur 0 1005 1 90
2018-12-05 20:00:00 12.8 6 Sur 9 Sudoeste 0 1004.5 0.7 86
2018-12-05 19:00:00 13.7 4 Sudoeste 7 Sudoeste 0 1004.3 0.6 83
2018-12-05 18:00:00 16.9 0 Calma 6 Sur 0 1004 -0.2 74
2018-12-05 17:00:00 19.1 2 Noroeste 5 Sur 0 1003.8 -0.9 64
2018-12-05 16:00:00 18.8 2 Este 9 Noroeste 0 1003.7 -1 66
2018-12-05 15:00:00 17.3 4 Noroeste 13 Noroeste 0 1004.2 -1.1 72
2018-12-05 14:00:00 15.4 7 Noroeste 12 Norte 0 1004.7 -0.6 79
2018-12-05 13:00:00 13.2 4 Sudeste 7 Este 0.2 1004.7 0.3 86
2018-12-05 12:00:00 9.3 2 Nordeste 6 Sudeste 0 1005.3 1.5 100
2018-12-05 11:00:00 7 0 Calma 4 Noroeste 0 1005.3 2.1 100
2018-12-05 10:00:00 6.1 0 Calma 5 Noroeste 0 1004.4 1.7 100
2018-12-05 09:00:00 5.5 2 Sur 7 Sur 0 1003.8 1.6 100
2018-12-05 08:00:00 5.9 0 Calma 2 Sudeste 0 1003.2 1.2 100
2018-12-05 07:00:00 6 0 Calma 5 Noroeste 0 1002.7 0.7 100
2018-12-05 06:00:00 5.9 0 Calma 7 Noroeste 0 1002.2 0.3 100
2018-12-05 05:00:00 6.1 2 Sur 5 Sur 0 1002 0.3 99
2018-12-05 04:00:00 6.1 0 Calma 6 Noroeste 0 1002 0.1 99
2018-12-05 03:00:00 6.5 4 Oeste 6 Oeste 0 1001.9 0 98
2018-12-05 02:00:00 7 0 Calma 5 Sudeste 0 1001.7 0.1 97
2018-12-05 01:00:00 7.8 4 Sudeste 5 Sudeste 0 1001.9 0.6 96
2018-12-05 00:00:00 8.5 3 Oeste 4 Oeste 0 1001.9 0.9 95
2018-12-04 23:00:00 10.3 3 Sudoeste 7 Sudoeste 0 1001.6 0.9 95
2018-12-04 22:00:00 10.1 0 Calma 6 Nordeste 0 1001.3 0.8 92
2018-12-04 21:00:00 11.9 3 Oeste 5 Sudoeste 0 1001 1 86
2018-12-04 20:00:00 13.4 4 Oeste 6 Oeste 0 1000.7 0.8 84
2018-12-04 19:00:00 14.6 5 Oeste 7 Oeste 0 1000.5 0.7 80
2018-12-04 18:00:00 16.7 2 Oeste 4 Noroeste 0 1000 -0.2 72
2018-12-04 17:00:00 18.1 4 Nordeste 10 Este 0 999.9 -1.1 64
2018-12-04 16:00:00 18.3 6 Este 13 Este 0 999.8 -2.1 64
2018-12-04 15:00:00 16.6 6 Nordeste 10 Nordeste 0 1000.2 -2.5 68
2018-12-04 14:00:00 14.6 6 Este 11 Nordeste 0 1001 -2 75
2018-12-04 13:00:00 11.9 3 Nordeste 10 Nordeste 0 1001.9 -0.6 88
2018-12-04 12:00:00 9.2 6 Este 14 Este 0 1002.7 0.6 100
2018-12-04 11:00:00 8.5 6 Este 14 Este 0 1003 1.3 100
2018-12-04 10:00:00 7.9 10 Este 14 Este 0 1002.5 1.3 100
2018-12-04 09:00:00 8.1 10 Nordeste 14 Nordeste 0 1002.1 1.3 100
2018-12-04 08:00:00 8.6 7 Nordeste 13 Nordeste 0 1001.7 0.7 100
2018-12-04 07:00:00 8.6 9 Nordeste 17 Este 0 1001.2 0.1 100
2018-12-04 06:00:00 8.9 10 Nordeste 14 Nordeste 0 1000.8 -0.4 100
2018-12-04 05:00:00 9.1 10 Nordeste 15 Este 0 1001 -0.7 100
2018-12-04 04:00:00 9.2 8 Este 17 Este 0 1001.1 -0.9 100
2018-12-04 03:00:00 9.2 11 Este 18 Este 0 1001.2 -1.4 99
2018-12-04 02:00:00 9 9 Este 19 Este 0 1001.7 -0.9 99
2018-12-04 01:00:00 9.2 13 Este 18 Sudeste 0 1002 -0.7 98
2018-12-04 00:00:00 9.3 12 Nordeste 18 Este 0 1002.6 0 98
2018-12-03 23:00:00 9.7 11 Este 15 Este 0 1002.6 0.2 97
2018-12-03 22:00:00 10 10 Este 19 Este 0 1002.7 0.4 95
2018-12-03 21:00:00 10.3 10 Este 18 Este 0 1002.6 0.4 95
2018-12-03 20:00:00 10.3 10 Nordeste 15 Este 0 1002.4 -0.1 95
2018-12-03 19:00:00 10.5 8 Este 13 Este 0 1002.3 -0.1 95
2018-12-03 18:00:00 10.7 8 Este 13 Norte 0 1002.2 -0.3 95
2018-12-03 17:00:00 10.8 9 Nordeste 17 Nordeste 0 1002.5 -0.6 94
2018-12-03 16:00:00 10.5 10 Nordeste 15 Nordeste 0 1002.4 -1.4 96
2018-12-03 15:00:00 10 12 Nordeste 18 Este 0 1002.5 -1.5 99
2018-12-03 14:00:00 9.6 9 Nordeste 22 Este 0 1003.1 -0.8 100
2018-12-03 13:00:00 8.8 14 Nordeste 20 Nordeste 0 1003.8 0.5 100
2018-12-03 12:00:00 8.2 10 Este 18 Este 0 1004 1 100
2018-12-03 11:00:00 7 11 Nordeste 17 Nordeste 0 1003.9 1 100
2018-12-03 10:00:00 6.2 12 Este 17 Este 0 1003.3 0.3 100
2018-12-03 09:00:00 5.7 7 Este 12 Este 0 1003 0.2 100
2018-12-03 08:00:00 5.8 6 Este 10 Este 0 1002.9 0 100
2018-12-03 07:00:00 5.6 2 Este 5 Nordeste 0 1003 -0.3 100
2018-12-03 06:00:00 5.2 2 Este 7 Este 0 1002.8 -0.6 100
2018-12-03 05:00:00 5.4 3 Nordeste 5 Este 0 1002.9 -0.9 100
2018-12-03 04:00:00 5.6 0 Calma 4 Nordeste 0.2 1003.3 -0.7 100
2018-12-03 03:00:00 6.1 3 Nordeste 4 Nordeste 0 1003.4 -0.8 99
2018-12-03 02:00:00 6.4 4 Este 5 Este 0 1003.8 -0.2 100
2018-12-03 01:00:00 6.3 2 Sudeste 5 Sudeste 0 1004 0.3 99
2018-12-03 00:00:00 6.4 0 Calma 3 Sudeste 0 1004.2 0.7 99
2018-12-02 23:00:00 6.9 0 Calma 8 Norte 0 1004 0.6 99
2018-12-02 22:00:00 7.1 6 Norte 8 Norte 0 1003.7 0.4 97
2018-12-02 21:00:00 8.6 2 Nordeste 5 Sur 0 1003.5 0.4 95
2018-12-02 20:00:00 9.9 3 Sur 7 Sur 0 1003.4 0.1 94
2018-12-02 19:00:00 11 4 Sudeste 8 Sudeste 0 1003.3 0.2 91
2018-12-02 18:00:00 12.5 5 Este 6 Este 0 1003.1 -0.2 86
2018-12-02 17:00:00 13.1 4 Norte 10 Norte 0 1003.3 -0.3 82
2018-12-02 16:00:00 12.6 5 Noroeste 13 Noroeste 0 1003.1 -1.1 87
2018-12-02 15:00:00 11 8 Noroeste 12 Noroeste 0 1003.3 -1.5 95
2018-12-02 14:00:00 10.3 4 Norte 11 Norte 0 1003.6 -1.3 96
2018-12-02 13:00:00 9.9 6 Noroeste 9 Norte 0 1004.2 -0.5 95
2018-12-02 12:00:00 9.4 5 Nordeste 10 Nordeste 0 1004.8 0.4 96
2018-12-02 11:00:00 8.3 4 Este 8 Este 0 1004.9 1.2 98
2018-12-02 10:00:00 6.7 6 Este 8 Este 0 1004.7 1.4 100
2018-12-02 09:00:00 4.3 3 Nordeste 4 Sudeste 0 1004.4 1.1 99
2018-12-02 08:00:00 4.8 3 Este 4 Este 0 1003.7 0.8 98
2018-12-02 07:00:00 5.3 2 Nordeste 3 Este 0 1003.3 -0.1 97
2018-12-02 06:00:00 5.6 3 Nordeste 5 Nordeste 0 1003.3 -0.2 96
2018-12-02 05:00:00 6.5 2 Sur 5 Sur 0 1002.9 -0.8 95
2018-12-02 04:00:00 6.8 0 Calma 7 Sur 0 1003.4 -0.3 96
2018-12-02 03:00:00 7.2 3 Sur 4 Sur 0 1003.5 -0.3 96
2018-12-02 02:00:00 7.6 3 Oeste 8 Sudoeste 0 1003.7 -0.3 94
2018-12-02 01:00:00 8.4 4 Sudoeste 8 Sudoeste 0 1003.7 0 95
2018-12-02 00:00:00 9.2 3 Sudoeste 7 Sudoeste 0 1003.8 0.3 91
2018-12-01 23:00:00 9.1 5 Sudoeste 6 Sudoeste 0 1004 0.8 91
2018-12-01 22:00:00 9.7 4 Sudoeste 7 Sudoeste 0 1003.7 1.1 88
2018-12-01 21:00:00 10 0 Calma 8 Oeste 0 1003.5 1 85
2018-12-01 20:00:00 11.1 4 Oeste 8 Oeste 0 1003.2 0.6 81
2018-12-01 19:00:00 12.3 3 Sudoeste 6 Sudoeste 0 1002.6 0.1 77
2018-12-01 18:00:00 13.6 2 Sur 7 Sudoeste 0 1002.5 -0.6 75
2018-12-01 17:00:00 14.4 5 Oeste 10 Oeste 0 1002.6 -0.7 69
2018-12-01 16:00:00 15 6 Oeste 16 Oeste 0 1002.5 -1.8 64
2018-12-01 15:00:00 14.9 6 Oeste 13 Noroeste 0 1003.1 -1.7 63
2018-12-01 14:00:00 14.3 3 Sudoeste 6 Este 0 1003.3 -1.5 68
2018-12-01 13:00:00 12.3 2 Sudoeste 7 Noroeste 0 1004.3 -0.3 81
2018-12-01 12:00:00 9.7 3 Nordeste 6 Nordeste 0 1004.8 1.2 90
2018-12-01 11:00:00 7.5 2 Nordeste 6 Noroeste 0 1004.8 1.5 95
2018-12-01 10:00:00 4.9 3 Noroeste 5 Noroeste 0 1004.6 1.3 100
2018-12-01 09:00:00 3.1 0 Calma 4 Este 0 1003.6 0.8 99
2018-12-01 08:00:00 3.9 2 Sur 8 Sudeste 0 1003.3 0.9 99
2018-12-01 07:00:00 3.8 0 Calma 8 Oeste 0 1003.3 0.2 99
2018-12-01 06:00:00 4.1 4 Oeste 6 Noroeste 0 1002.8 -0.4 98
2018-12-01 05:00:00 4.7 2 Este 6 Este 0 1002.4 -0.7 97
2018-12-01 04:00:00 5.3 0 Calma 5 Sudoeste 0 1003.1 -0.3 96
2018-12-01 03:00:00 5.6 4 Oeste 5 Oeste 0 1003.2 -0.5 96
2018-12-01 02:00:00 5.7 2 Noroeste 6 Este 0 1003.1 -0.7 95
2018-12-01 01:00:00 6.8 0 Calma 5 Sudoeste 0 1003.4 0.3 91
2018-12-01 00:00:00 7.5 4 Sur 8 Oeste 0 1003.7 0.9 90
2018-11-30 23:00:00 8.3 5 Oeste 8 Oeste 0 1003.8 1.2 86
2018-11-30 22:00:00 9.2 4 Sudoeste 8 Sudoeste 0 1003.1 1.4 82
2018-11-30 21:00:00 9.8 4 Sudoeste 6 Oeste 0 1002.8 1.6 80
2018-11-30 20:00:00 10.6 5 Sudoeste 9 Oeste 0 1002.6 1.3 76
2018-11-30 19:00:00 11.6 8 Noroeste 9 Noroeste 0 1001.7 0.6 71
2018-11-30 18:00:00 12.8 7 Noroeste 16 Noroeste 0 1001.2 -0.2 69
2018-11-30 17:00:00 14.5 9 Noroeste 18 Noroeste 0 1001.3 -0.7 65
2018-11-30 16:00:00 14.6 10 Noroeste 19 Noroeste 0 1001.1 -1.2 67
2018-11-30 15:00:00 14.1 10 Noroeste 15 Noroeste 0 1001.4 -1.2 73
2018-11-30 14:00:00 12.9 8 Noroeste 14 Noroeste 0 1002 -0.4 81
2018-11-30 13:00:00 11.8 7 Noroeste 15 Noroeste 0 1002.3 0.5 86
2018-11-30 12:00:00 10.8 4 Norte 14 Noroeste 0 1002.6 1.5 88
2018-11-30 11:00:00 9.9 4 Nordeste 10 Oeste 0 1002.4 2 91
2018-11-30 10:00:00 9.4 6 Oeste 9 Noroeste 0 1001.8 2 95
2018-11-30 09:00:00 8.7 2 Oeste 12 Noroeste 0 1001.1 1.7 96
2018-11-30 08:00:00 8.5 6 Oeste 13 Oeste 0 1000.4 1.5 97
2018-11-30 07:00:00 9.3 5 Oeste 14 Noroeste 0 999.8 1 96
2018-11-30 06:00:00 9.3 10 Noroeste 14 Oeste 0 999.4 1.1 98
2018-11-30 05:00:00 9.8 7 Oeste 13 Noroeste 0 998.9 0.8 98
2018-11-30 04:00:00 9.5 13 Noroeste 16 Noroeste 0 998.8 1.2 97
2018-11-30 03:00:00 10.8 8 Noroeste 18 Noroeste 0 998.3 0.9 95
2018-11-30 02:00:00 12 13 Noroeste 20 Noroeste 0 998.1 1.1 96
2018-11-30 01:00:00 12.9 9 Oeste 19 Oeste 0 997.6 0.5 98
2018-11-30 00:00:00 12.6 0 Calma 14 Sudeste 0 997.4 1 97
2018-11-29 23:00:00 12.5 4 Sur 16 Noroeste 0.6 997 0.6 98
2018-11-29 22:00:00 12.5 0 Calma 7 Sudeste 1 997.1 0.6 97
2018-11-29 21:00:00 12.7 2 Nordeste 8 Sudeste 4 996.4 -0.1 95
2018-11-29 20:00:00 13.1 7 Sudeste 12 Este 1.8 996.4 0.4 92
2018-11-29 19:00:00 14 4 Sudeste 14 Sur 0 996.5 -0.5 83
2018-11-29 18:00:00 14.3 7 Sur 26 Sudeste 0 996.5 -0.1 79
2018-11-29 17:00:00 14.6 12 Sur 23 Sur 0 996 -2.6 77
2018-11-29 16:00:00 14.1 9 Sur 19 Sur 0 997 -2.6 78
2018-11-29 15:00:00 14.5 9 Sudeste 15 Sudeste 0 996.6 -3.8 76
2018-11-29 14:00:00 12.8 0 Calma 10 Noroeste 0 998.6 -1.5 80
2018-11-29 13:00:00 12.1 3 Noroeste 11 Noroeste 0 999.6 -0.2 78
2018-11-29 12:00:00 10.9 5 Oeste 9 Oeste 0 1000.4 0.8 80
2018-11-29 11:00:00 8.4 3 Nordeste 6 Nordeste 0 1000.1 0.5 90
2018-11-29 10:00:00 5.3 6 Este 9 Sudeste 0 999.8 -0.1 100
2018-11-29 09:00:00 1.7 4 Sudeste 6 Este 0 999.6 0.1 100
2018-11-29 08:00:00 1.4 3 Sudeste 8 Oeste 0 999.6 -0.2 99
2018-11-29 07:00:00 1.5 5 Noroeste 8 Noroeste 0 999.9 0.3 99
2018-11-29 06:00:00 2 3 Sudeste 6 Sudeste 0 999.5 -0.3 99
2018-11-29 05:00:00 2.1 0 Calma 10 Noroeste 0 999.8 0.2 98
2018-11-29 04:00:00 3.4 3 Sudeste 6 Oeste 0 999.6 -0.3 98
2018-11-29 03:00:00 4 5 Oeste 7 Oeste 0 999.8 -0.6 99
2018-11-29 02:00:00 4.2 0 Calma 6 Nordeste 0 999.6 -0.9 97
2018-11-29 01:00:00 5 6 Este 8 Este 0 999.9 -1 95
2018-11-29 00:00:00 5.9 4 Sudeste 5 Sudeste 0 1000.4 0 95
2018-11-28 23:00:00 6.6 3 Sudeste 4 Sudeste 0 1000.5 0 94
2018-11-28 22:00:00 7.2 2 Oeste 6 Norte 0 1000.9 0.3 93
2018-11-28 21:00:00 8.1 0 Calma 8 Este 0 1000.4 -0.2 85
2018-11-28 14:00:00 13.8 5 Nordeste 10 Nordeste 0 1002 -1.6 74
2018-11-28 13:00:00 12.1 6 Nordeste 14 Este 0 1002.5 -0.9 78
2018-11-28 12:00:00 10.1 4 Este 12 Este 0 1003.3 0.3 85
2018-11-28 11:00:00 7.2 6 Este 11 Este 0 1003.6 0.8 97
2018-11-28 10:00:00 4.1 4 Este 8 Este 0 1003.4 0.8 100
2018-11-28 09:00:00 2.3 3 Sur 4 Sur 0 1003 0.6 100
2018-11-28 08:00:00 2.1 0 Calma 4 Noroeste 0 1002.8 0.7 100
2018-11-28 07:00:00 1.7 4 Noroeste 5 Noroeste 0 1002.6 0.6 99
2018-11-28 06:00:00 2.4 3 Noroeste 4 Noroeste 0 1002.4 0.3 99
2018-11-28 05:00:00 3.3 2 Sur 5 Este 0 1002.1 0 99
2018-11-28 04:00:00 3.5 3 Sudeste 4 Sudeste 0 1002 -0.4 98
2018-11-28 03:00:00 4 2 Noroeste 3 Norte 0 1002.1 -0.2 98
2018-11-28 02:00:00 4.9 0 Calma 4 Este 0 1002.1 -0.4 97
2018-11-28 01:00:00 5.6 3 Este 5 Este 0 1002.4 0.1 96
2018-11-28 00:00:00 6.1 4 Este 5 Este 0 1002.3 0.3 96
2018-11-27 23:00:00 6.6 4 Este 7 Este 0 1002.5 0.6 95
2018-11-27 22:00:00 7.6 5 Este 6 Este 0 1002.3 0.5 91
2018-11-27 21:00:00 8.7 3 Sudeste 5 Sudeste 0 1002 0.3 84
2018-11-27 20:00:00 10 5 Sudeste 7 Sudeste 0 1001.9 0 79
2018-11-27 19:00:00 11.3 4 Sur 5 Sur 0 1001.8 0.3 76
2018-11-27 18:00:00 13.8 4 Norte 6 Noroeste 0 1001.7 -0.3 64
2018-11-27 17:00:00 15.4 2 Norte 6 Norte 0 1001.9 -0.5 57
2018-11-27 16:00:00 15.2 4 Norte 9 Norte 0 1001.5 -1.6 61
2018-11-27 15:00:00 14.9 4 Nordeste 12 Este 0 1002 -1.8 66
2018-11-27 14:00:00 13.6 6 Nordeste 12 Este 0 1002.4 -1.4 75
2018-11-27 13:00:00 11.5 6 Este 10 Nordeste 0 1003.1 0.2 87
2018-11-27 12:00:00 8.7 6 Este 11 Nordeste 0 1003.8 1.9 95
2018-11-27 11:00:00 7.9 5 Nordeste 8 Este 0 1003.8 1.9 96
2018-11-27 10:00:00 6.1 4 Norte 7 Norte 0 1002.9 0.8 99
2018-11-27 09:00:00 4.8 4 Sudeste 8 Este 0 1001.9 -0.6 99
2018-11-27 08:00:00 5 4 Este 6 Este 0 1001.9 -0.7 98
2018-11-27 07:00:00 5.4 4 Este 7 Sudeste 0 1002.1 -0.6 97
2018-11-27 06:00:00 6 0 Calma 4 Sur 0 1002.5 -0.4 96
2018-11-27 05:00:00 6.2 0 Calma 4 Sur 0 1002.6 0 96
2018-11-27 04:00:00 6.6 2 Sudeste 6 Sur 0 1002.7 0.1 94
2018-11-27 03:00:00 7.1 2 Sudoeste 8 Oeste 0 1002.9 0.6 95
2018-11-27 02:00:00 7.5 5 Oeste 8 Oeste 0 1002.6 0.2 93
2018-11-27 01:00:00 7.9 6 Oeste 11 Oeste 0 1002.6 1 92
2018-11-27 00:00:00 8.5 5 Oeste 8 Oeste 0 1002.3 0.7 90
2018-11-26 23:00:00 8.8 6 Oeste 10 Oeste 0 1002.4 1.5 88
2018-11-26 22:00:00 9.8 5 Sudoeste 14 Oeste 0 1001.6 1.7 83
2018-11-26 21:00:00 10.4 9 Oeste 17 Oeste 0 1001.6 2.3 81
2018-11-26 20:00:00 10.8 8 Oeste 14 Sudoeste 0 1000.9 1.8 78
2018-11-26 19:00:00 11.8 7 Oeste 16 Sudoeste 0 999.9 1.3 74
2018-11-26 18:00:00 12.8 9 Oeste 17 Oeste 0 999.3 1.1 72
2018-11-26 17:00:00 14.5 10 Oeste 27 Oeste 0 999.1 0.7 64
2018-11-26 16:00:00 15.2 18 Oeste 32 Oeste 0 998.6 -0.6 60
2018-11-26 15:00:00 15.7 22 Oeste 34 Oeste 0 998.2 -1.1 57
2018-11-26 14:00:00 15.3 24 Oeste 37 Noroeste 0 998.4 -0.4 59
2018-11-26 13:00:00 14.8 18 Oeste 35 Oeste 0 999.2 1.2 62
2018-11-26 12:00:00 13.7 19 Oeste 33 Noroeste 0 999.3 2.3 70
2018-11-26 11:00:00 12.8 21 Oeste 35 Oeste 0 998.8 2.3 72
2018-11-26 10:00:00 11 14 Oeste 28 Oeste 0 998 2 80
2018-11-26 09:00:00 9.5 10 Sudoeste 22 Oeste 0 997 1.4 84
2018-11-26 08:00:00 9.1 8 Sudoeste 23 Oeste 0 996.5 1.6 84
2018-11-26 07:00:00 9.3 10 Sudoeste 26 Sudoeste 0 996 1.1 85
2018-11-26 06:00:00 9.4 8 Sudoeste 22 Oeste 0 995.6 1.4 85
2018-11-26 05:00:00 10 12 Oeste 24 Oeste 0 994.9 1.4 83
2018-11-26 04:00:00 10.3 14 Oeste 27 Oeste 0 994.9 1.9 81
2018-11-26 03:00:00 10.8 16 Oeste 29 Oeste 0 994.2 2.2 78
2018-11-26 02:00:00 11.3 15 Oeste 34 Oeste 0 993.5 2.9 77
2018-11-26 01:00:00 11.7 17 Oeste 35 Noroeste 0 993 4.4 76
2018-11-26 00:00:00 12.2 22 Oeste 51 Oeste 0 992 4.7 78
2018-11-25 23:00:00 13.8 24 Oeste 52 Oeste 0 990.6 2.1 82
2018-11-25 22:00:00 14.8 18 Oeste 36 Oeste 0 988.6 -0.2 94
2018-11-25 21:00:00 14.3 15 Sudoeste 31 Sudoeste 1.4 987.3 -1.8 94
2018-11-25 20:00:00 13.6 9 Sudoeste 25 Sudoeste 2.6 988.5 -0.9 95
2018-11-25 19:00:00 12.9 5 Sudoeste 23 Sudoeste 1.8 988.8 -0.8 93
2018-11-25 18:00:00 14.1 8 Sudoeste 24 Sudoeste 0.2 989.1 -1.2 90
2018-11-25 17:00:00 15 10 Sudoeste 28 Oeste 0.2 989.4 -1.3 87
2018-11-25 16:00:00 16.3 11 Sudoeste 26 Sur 0 989.6 -1.5 82
2018-11-25 15:00:00 15.8 11 Sudoeste 24 Sudoeste 0 990.3 -1.5 86
2018-11-25 14:00:00 15.6 9 Sudoeste 22 Oeste 0 990.7 -1.1 91
2018-11-25 13:00:00 15.8 9 Sudoeste 21 Sur 0 991.1 -0.1 88
2018-11-25 12:00:00 15.7 8 Sudoeste 26 Sur 0 991.8 1 86
2018-11-25 11:00:00 16.2 10 Sudoeste 26 Oeste 0 991.8 1.6 84
2018-11-25 10:00:00 14.6 8 Sudoeste 22 Sudoeste 0 991.2 1.2 90
2018-11-25 09:00:00 14.3 12 Sudoeste 26 Sur 0.2 990.8 1.1 95
2018-11-25 08:00:00 14.4 6 Sudoeste 22 Sur 0 990.2 0.5 92
2018-11-25 07:00:00 14.5 9 Sudoeste 22 Sudoeste 0 990 -0.2 92
2018-11-25 06:00:00 14.1 8 Sudoeste 22 Oeste 0 989.7 -0.5 92
2018-11-25 05:00:00 13.9 9 Sudoeste 21 Sudoeste 0 989.7 -0.8 93
2018-11-25 04:00:00 12.8 4 Sudoeste 12 Sudoeste 0 990.2 -0.6 95
2018-11-25 03:00:00 12.8 5 Sudoeste 13 Sudoeste 0 990.2 -1.1 93
2018-11-25 02:00:00 12.8 5 Sudoeste 12 Sur 0 990.5 -0.5 92
2018-11-25 01:00:00 13.6 5 Sudoeste 23 Sudoeste 0 990.8 -0.6 92
2018-11-25 00:00:00 13.7 15 Sur 31 Sur 0.2 991.3 -0.2 94
2018-11-24 23:00:00 13.7 18 Sur 36 Sur 0.2 991 -0.8 90
2018-11-24 22:00:00 14.3 16 Sur 28 Sur 0 991.4 -0.9 81
2018-11-24 21:00:00 14.3 14 Sur 30 Sur 0 991.5 -1 76
2018-11-24 20:00:00 14.1 13 Sur 25 Sur 0 991.8 -1 76
2018-11-24 19:00:00 14.4 11 Sur 21 Sur 0 992.3 -0.5 74
2018-11-24 18:00:00 14.8 8 Sur 21 Sur 0 992.5 -0.9 70
2018-11-24 17:00:00 15.3 12 Sur 27 Sur 0 992.8 -1.6 65
2018-11-24 16:00:00 16.1 15 Sur 24 Sur 0 992.8 -2.4 61
2018-11-24 15:00:00 16.1 14 Sur 26 Sur 0 993.4 -2.8 60
2018-11-24 14:00:00 15.7 12 Sudoeste 29 Sur 0 994.4 -2.1 60
2018-11-24 13:00:00 14.8 7 Este 14 Este 0 995.2 -1.1 70
2018-11-24 12:00:00 11.7 9 Este 14 Este 0 996.2 0.5 84
2018-11-24 11:00:00 8.8 7 Este 10 Este 0 996.5 1 92
2018-11-24 10:00:00 7.1 6 Este 10 Este 0 996.3 1.2 97
2018-11-24 09:00:00 5.2 7 Sudeste 11 Sudeste 0 995.7 0.7 98
2018-11-24 08:00:00 5.1 6 Sudeste 9 Este 0 995.5 0.3 98
2018-11-24 07:00:00 5.2 4 Nordeste 6 Nordeste 0 995.1 -0.4 97
2018-11-24 06:00:00 5.9 6 Este 8 Sudeste 0 995 -0.8 97
2018-11-24 05:00:00 5.9 4 Sudeste 6 Este 0 995.2 -1 97
2018-11-24 04:00:00 6.1 5 Este 7 Sudeste 0 995.5 -0.7 96
2018-11-24 03:00:00 6.2 4 Sudeste 10 Este 0 995.8 -0.3 97
2018-11-24 02:00:00 6.2 0 Calma 6 Sur 0 996.2 0.2 94
2018-11-24 01:00:00 6.6 3 Sudoeste 8 Sur 0 996.2 0.4 95
2018-11-24 00:00:00 7.5 3 Este 8 Este 0 996.1 0.6 91
2018-11-23 23:00:00 9.6 4 Oeste 10 Sur 0 996 0.9 85
2018-11-23 22:00:00 10.4 3 Sudoeste 12 Sur 0 995.8 1.2 81
2018-11-23 21:00:00 11 6 Sur 13 Sur 0 995.5 1.3 78
2018-11-23 20:00:00 11.5 6 Sur 12 Sur 0 995.1 0.9 73
2018-11-23 19:00:00 12.2 5 Sudoeste 8 Sudoeste 0 994.6 0.5 71
2018-11-23 18:00:00 13.5 3 Oeste 7 Oeste 0 994.2 0.1 68
2018-11-23 17:00:00 14.8 5 Oeste 20 Sudoeste 0 994.2 -0.1 59
2018-11-23 16:00:00 15.8 9 Oeste 21 Oeste 0 994.1 -0.9 56
2018-11-23 15:00:00 15.9 9 Oeste 19 Oeste 0 994.1 -1.4 53
2018-11-23 14:00:00 15.3 8 Sudoeste 20 Oeste 0 994.3 -1.2 57
2018-11-23 13:00:00 15.1 5 Sudoeste 15 Sudoeste 0 995 -0.3 70
2018-11-23 12:00:00 13.5 7 Oeste 14 Oeste 0 995.5 1 79
2018-11-23 11:00:00 12.4 8 Oeste 14 Oeste 0 995.5 1.6 89
2018-11-23 10:00:00 10.9 5 Oeste 13 Oeste 0 995.3 1.9 94
2018-11-23 09:00:00 10.5 5 Oeste 12 Oeste 0 994.5 1.4 97
2018-11-23 08:00:00 10.4 4 Oeste 11 Oeste 0 993.9 1 98
2018-11-23 07:00:00 9.9 6 Oeste 13 Oeste 0 993.4 0.6 99
2018-11-23 06:00:00 9.3 3 Sur 5 Nordeste 0 993.1 0.7 98
2018-11-23 05:00:00 8.9 4 Norte 10 Oeste 0 992.9 0.6 97
2018-11-23 04:00:00 9.7 2 Oeste 8 Sudoeste 0 992.8 0.3 96
2018-11-23 03:00:00 9.9 3 Oeste 11 Sudoeste 0 992.4 -0.1 95
2018-11-23 02:00:00 10.3 4 Sudoeste 12 Sudoeste 0.2 992.3 -0.4 92
2018-11-23 01:00:00 10.4 4 Sudoeste 12 Sudoeste 1.6 992.5 0.1 95
2018-11-23 00:00:00 10.4 5 Sudoeste 13 Oeste 0.8 992.5 0.1 94
2018-11-22 23:00:00 10.6 5 Sudoeste 22 Oeste 0.2 992.7 0.5 91
2018-11-22 22:00:00 11.1 3 Sudoeste 7 Oeste 0.2 992.4 0.6 97
2018-11-22 21:00:00 10.9 6 Noroeste 8 Noroeste 0.8 992.4 0.6 96
2018-11-22 20:00:00 11.2 3 Sudoeste 8 Oeste 0.6 992.2 0.6 93
2018-11-22 19:00:00 11.5 4 Sudoeste 19 Sur 0.2 991.8 0.3 88
2018-11-22 18:00:00 11.9 8 Sur 16 Sudoeste 1.2 991.8 -0.2 84
2018-11-22 17:00:00 13.1 5 Sudeste 9 Sudeste 0 991.6 -1 87
2018-11-22 16:00:00 13.3 6 Este 8 Este 0 991.5 -1.5 86
2018-11-22 15:00:00 12.7 3 Sudoeste 14 Sur 0.6 992 -1.6 87
2018-11-22 14:00:00 13.9 8 Sur 16 Sudeste 0 992.6 -1.2 80
2018-11-22 13:00:00 13.1 3 Nordeste 8 Este 0 993 -0.6 88
2018-11-22 12:00:00 11.5 4 Este 8 Este 0 993.6 0.5 90
2018-11-22 11:00:00 10.4 4 Nordeste 8 Nordeste 0 993.8 0.9 94
2018-11-22 10:00:00 9.1 4 Este 6 Este 0 993.6 1 98
2018-11-22 09:00:00 7.9 4 Este 8 Este 0 993.1 0.4 98
2018-11-22 08:00:00 7.5 4 Este 8 Sudeste 0 992.9 0.2 97
2018-11-22 07:00:00 7.5 7 Este 9 Este 0 992.6 -0.3 97
2018-11-22 06:00:00 7.4 5 Este 8 Nordeste 0 992.7 -0.4 96
2018-11-22 05:00:00 7.5 4 Nordeste 7 Nordeste 0 992.7 -0.5 97
2018-11-22 04:00:00 8.1 2 Norte 9 Sudeste 0 992.9 -0.3 93
2018-11-22 03:00:00 9.1 7 Sudeste 13 Sudeste 0 993.1 0 89
2018-11-22 02:00:00 9.5 8 Sur 15 Sur 0 993.2 -0.1 89
2018-11-22 01:00:00 9.5 8 Sur 15 Sur 0 993.2 0.1 88
2018-11-22 00:00:00 9.6 5 Sur 12 Sur 0 993.1 0.1 88
2018-11-21 23:00:00 10.6 3 Sur 17 Sur 0 993.3 1.1 82
2018-11-21 22:00:00 10.5 8 Sur 13 Sur 0 993.1 1.3 84
2018-11-21 21:00:00 10.8 6 Sur 11 Sur 0 993 1.9 83
2018-11-21 20:00:00 11.6 5 Sur 9 Sur 0 992.2 1.6 81
2018-11-21 19:00:00 12.1 5 Sur 8 Sudoeste 0 991.8 1.5 81
2018-11-21 18:00:00 13.3 0 Calma 22 Sudoeste 0 991.1 1 75
2018-11-21 17:00:00 14.7 7 Sudoeste 26 Sudoeste 0 990.6 0.5 65
2018-11-21 16:00:00 16 8 Sudoeste 42 Sudoeste 0 990.3 -0.3 53
2018-11-21 15:00:00 17.1 9 Sudoeste 27 Sur 0 990.1 -0.8 55
2018-11-21 14:00:00 16.6 8 Sudoeste 33 Oeste 0 990.1 -0.5 56
2018-11-21 13:00:00 15.5 10 Sudoeste 28 Sur 0 990.6 0.6 69
2018-11-21 12:00:00 15.1 9 Sudoeste 22 Sudoeste 0 990.9 1.5 74
2018-11-21 11:00:00 13.4 6 Sudoeste 21 Sur 0 990.6 2 83
2018-11-21 10:00:00 11.8 6 Sudoeste 15 Sur 0 990 1.7 89
2018-11-21 09:00:00 9.1 2 Oeste 5 Sudoeste 0 989.4 1.2 97
2018-11-21 08:00:00 10.3 2 Sudoeste 12 Sudoeste 0 988.6 0.7 92
2018-11-21 07:00:00 10.6 5 Sur 11 Sudoeste 0 988.3 0.3 94
2018-11-21 06:00:00 10.6 6 Sur 14 Sur 0 988.2 0.5 94
2018-11-21 05:00:00 10.9 5 Sudoeste 18 Sudoeste 0 987.9 0.4 93
2018-11-21 04:00:00 11.1 6 Sudoeste 15 Sudoeste 0 988 0.3 94
2018-11-21 03:00:00 10.9 6 Sudoeste 22 Sur 0 987.7 0.3 92
2018-11-21 02:00:00 11.4 10 Sudoeste 24 Sudoeste 0 987.5 0.4 90
2018-11-21 01:00:00 12.1 8 Sudoeste 29 Sudoeste 0.2 987.7 1.1 92
2018-11-21 00:00:00 12.3 8 Sudoeste 21 Sudoeste 0 987.4 1.4 89
2018-11-20 23:00:00 11.6 5 Sudoeste 18 Sur 0 987.1 1.8 89
2018-11-20 22:00:00 11.3 6 Sudoeste 18 Sur 0 986.6 1.9 88
2018-11-20 21:00:00 11.5 8 Sudoeste 19 Oeste 0 986 2.1 89
2018-11-20 20:00:00 12.2 9 Sudoeste 21 Sudoeste 0 985.3 2.1 86
2018-11-20 19:00:00 12.8 6 Sudoeste 21 Oeste 0 984.7 1.7 86
2018-11-20 18:00:00 13.1 9 Oeste 30 Oeste 0.2 983.9 1.3 85
2018-11-20 17:00:00 14.5 14 Oeste 42 Oeste 0 983.2 0.1 73
2018-11-20 16:00:00 15.1 21 Oeste 42 Oeste 0 983 -0.3 70
2018-11-20 15:00:00 14.6 10 Sudoeste 31 Oeste 0 982.6 -1.2 74
2018-11-20 14:00:00 14.7 18 Oeste 34 Oeste 0 983.1 -0.4 73
2018-11-20 13:00:00 16.2 13 Oeste 38 Oeste 0 983.3 0.4 63
2018-11-20 12:00:00 14.6 12 Oeste 25 Oeste 0 983.8 1.6 74
2018-11-20 11:00:00 13.5 13 Oeste 24 Sudoeste 0 983.5 1.7 81
2018-11-20 10:00:00 12 4 Sudoeste 14 Sudoeste 0 982.9 1.8 94
2018-11-20 09:00:00 10.7 6 Oeste 13 Sudoeste 0.2 982.2 1 99
2018-11-20 08:00:00 9.3 6 Oeste 9 Noroeste 0 981.8 0.7 100
2018-11-20 07:00:00 9.8 3 Sudoeste 6 Sudoeste 0 981.1 -0.4 99
2018-11-20 06:00:00 9.1 2 Sur 5 Noroeste 0 981.2 -0.5 99
2018-11-20 05:00:00 9.1 0 Calma 4 Sudeste 0 981.1 -0.9 98
2018-11-20 04:00:00 9.6 0 Calma 8 Noroeste 0 981.5 -0.5 98
2018-11-20 03:00:00 9.8 2 Sudeste 6 Sudoeste 0 981.7 -0.6 96
2018-11-20 02:00:00 10.1 4 Oeste 8 Noroeste 0 982 -0.5 96
2018-11-20 01:00:00 10.6 3 Noroeste 9 Noroeste 0 982 -0.5 92
2018-11-20 00:00:00 11.4 3 Sudoeste 9 Sudoeste 0 982.3 -0.1 93
2018-11-19 23:00:00 12.3 2 Sudoeste 6 Sur 0 982.5 0.3 92
2018-11-19 22:00:00 12.9 2 Sudoeste 6 Oeste 0 982.5 0.5 91
2018-11-19 21:00:00 13.1 3 Sudoeste 8 Sudoeste 0 982.4 0.8 89
2018-11-19 20:00:00 13.6 3 Sudoeste 8 Sudoeste 0 982.2 0.8 87
2018-11-19 19:00:00 14.3 3 Sudoeste 8 Sudoeste 0 982 0.8 85
2018-11-19 18:00:00 15 5 Oeste 16 Sudoeste 0 981.6 0.2 79
2018-11-19 17:00:00 16 4 Oeste 20 Oeste 0 981.4 -0.6 72
2018-11-19 16:00:00 16.6 5 Oeste 13 Oeste 0 981.2 -1.3 72
2018-11-19 15:00:00 15.3 6 Oeste 12 Oeste 0 981.4 -1.3 78
2018-11-19 14:00:00 14.3 4 Oeste 13 Oeste 0 982 -0.4 84
2018-11-19 13:00:00 12.6 5 Oeste 12 Oeste 0 982.5 0.3 95
2018-11-19 12:00:00 11.7 4 Oeste 8 Sur 0 982.7 1 100
2018-11-19 11:00:00 11.2 4 Oeste 7 Sudoeste 0 982.4 1.3 100
2018-11-19 10:00:00 10 2 Sudoeste 8 Noroeste 0 982.2 1.6 100
2018-11-19 09:00:00 9.3 4 Oeste 10 Oeste 0 981.7 1.5 100
2018-11-19 08:00:00 8.7 5 Oeste 13 Noroeste 0 981.1 1.2 100
2018-11-19 07:00:00 8.6 5 Oeste 12 Noroeste 0 980.6 0.8 100
2018-11-19 06:00:00 8.3 3 Sudeste 6 Sur 0 980.2 0.3 99
2018-11-19 05:00:00 8.1 3 Noroeste 6 Noroeste 0 979.9 0.1 99
2018-11-19 04:00:00 9.4 2 Sur 4 Oeste 0 979.8 0.1 99
2018-11-19 03:00:00 9.5 0 Calma 6 Este 0 979.9 0.2 99
2018-11-19 02:00:00 10.1 4 Este 6 Este 0 979.8 0.1 98
2018-11-19 01:00:00 9.6 5 Este 6 Nordeste 0 979.7 0.3 98
2018-11-19 00:00:00 10.4 4 Sudeste 9 Sudeste 0 979.7 0.6 97
2018-11-18 23:00:00 10.7 4 Este 10 Este 0 979.7 0.8 95
2018-11-18 22:00:00 11.8 9 Este 14 Este 0 979.4 0.7 95
2018-11-18 21:00:00 12.4 11 Este 17 Este 0 979.1 0.1 96
2018-11-18 20:00:00 12.6 12 Este 17 Este 0 978.9 -0.1 95
2018-11-18 19:00:00 13 11 Este 15 Nordeste 0 978.7 -0.3 95
2018-11-18 18:00:00 13.3 9 Este 13 Nordeste 0.4 979 -0.5 95
2018-11-18 17:00:00 13.3 6 Este 16 Este 0 979 -0.7 93
2018-11-18 16:00:00 13.7 11 Este 19 Este 0.2 979 -1.4 89
2018-11-18 15:00:00 13 14 Este 26 Este 0.4 979.5 -1 93
2018-11-18 14:00:00 13.5 17 Este 26 Este 0 979.7 -1 88
2018-11-18 13:00:00 13.4 17 Sudeste 27 Este 1.4 980.4 -0.4 91
2018-11-18 12:00:00 13.9 9 Sudeste 35 Este 0.2 980.5 -0.8 93
2018-11-18 11:00:00 13.3 25 Este 36 Este 0.4 980.7 -0.4 93
2018-11-18 10:00:00 12.7 21 Este 29 Este 2.2 980.8 -0.5 96
2018-11-18 09:00:00 12.8 12 Este 18 Este 2.6 981.3 -0.1 96
2018-11-18 08:00:00 13 11 Este 15 Este 4.6 981.1 -0.5 95
2018-11-18 07:00:00 13.4 8 Este 14 Este 1.2 981.3 -0.8 91
2018-11-18 06:00:00 14 10 Este 14 Este 0 981.4 -1.7 85
2018-11-18 05:00:00 14.4 8 Sudeste 26 Este 0 981.6 -2.1 82
2018-11-18 04:00:00 14.6 15 Sudeste 23 Este 0 982.1 -2.5 81
2018-11-18 03:00:00 14.6 12 Sudeste 22 Sudeste 0 983.1 -2 82
2018-11-18 02:00:00 14 14 Este 21 Este 0 983.7 -1.9 85
2018-11-18 01:00:00 13.8 11 Este 14 Este 0 984.6 -0.3 86
2018-11-18 00:00:00 14.5 14 Este 18 Este 0 985.1 -0.8 83
2018-11-17 23:00:00 15.3 7 Sudeste 26 Este 0 985.6 -0.8 80
2018-11-17 22:00:00 15.5 18 Este 25 Este 0 984.9 -2 79
2018-11-17 21:00:00 15.5 13 Este 19 Este 0 985.9 -1.2 79
2018-11-17 20:00:00 15.9 10 Este 16 Este 0 986.4 -1 77
2018-11-17 19:00:00 17.3 8 Sudeste 19 Sudeste 0 986.9 -0.8 69
2018-11-17 18:00:00 18.4 10 Sudeste 17 Sudeste 0 987.1 -1 65
2018-11-17 17:00:00 19.3 6 Sudeste 18 Sudeste 0 987.4 -1.7 63
2018-11-17 16:00:00 20.1 10 Sudeste 22 Sudeste 0 987.7 -2.4 58
2018-11-17 15:00:00 20.4 10 Sudeste 26 Este 0 988.1 -3.3 59
2018-11-17 14:00:00 20.6 12 Sudeste 27 Este 0 989.1 -2.7 60
2018-11-17 13:00:00 19 18 Este 29 Este 0 990.1 -2 71
2018-11-17 12:00:00 16.6 17 Este 24 Este 0 991.4 -0.8 80
2018-11-17 11:00:00 14.5 17 Este 23 Este 0 991.8 0 86
2018-11-17 10:00:00 12.6 14 Este 21 Este 0 992.1 0.5 91
2018-11-17 09:00:00 9.8 8 Este 12 Este 0 992.2 1 98
2018-11-17 08:00:00 9.2 8 Este 10 Este 0 991.8 0.3 97
2018-11-17 07:00:00 9.6 5 Noroeste 9 Este 0 991.6 -0.3 96
2018-11-17 06:00:00 10.4 6 Este 20 Este 0 991.2 -1.1 96
2018-11-17 05:00:00 10.2 11 Este 15 Este 0 991.5 -1.1 98
2018-11-17 04:00:00 9.6 3 Sudeste 10 Este 0 991.9 -0.5 98
2018-11-17 03:00:00 9.7 8 Nordeste 11 Este 0 992.3 -0.5 96
2018-11-17 02:00:00 10.2 9 Este 12 Este 0 992.6 -0.4 95
2018-11-17 01:00:00 11 6 Este 11 Este 0 992.4 -0.4 94
2018-11-17 00:00:00 12 6 Este 11 Este 0 992.8 -0.2 92
2018-11-16 23:00:00 12.7 6 Sudeste 12 Sudeste 0 993 0.1 93
2018-11-16 22:00:00 13.2 7 Este 12 Este 0 992.8 0 92
2018-11-16 21:00:00 14.3 3 Este 8 Este 0 993 0.3 89
2018-11-16 20:00:00 15.8 7 Este 9 Este 0 992.9 0.1 83
2018-11-16 19:00:00 16.3 4 Este 12 Este 0 992.8 -0.1 81
2018-11-16 18:00:00 17.6 8 Este 17 Este 0 992.7 -0.5 75
2018-11-16 17:00:00 19.6 12 Nordeste 16 Este 0 992.8 -1.1 66
2018-11-16 16:00:00 19.9 7 Este 19 Este 0 992.9 -1.5 63
2018-11-16 15:00:00 20.9 10 Este 20 Este 0 993.2 -2.2 59
2018-11-16 14:00:00 20.2 8 Este 18 Este 0 993.9 -1.9 63
2018-11-16 13:00:00 18.8 13 Este 19 Este 0 994.4 -1.3 69
2018-11-16 12:00:00 17.4 10 Este 19 Este 0 995.4 0.1 76
2018-11-16 11:00:00 14.8 12 Este 17 Este 0 995.8 1.1 86
2018-11-16 10:00:00 12.2 -- -- -- -- -- 995.7 1.4 97
2018-11-16 09:00:00 9.4 5 Sudeste 8 Este 0 995.3 1 100
2018-11-16 08:00:00 8.9 6 Este 11 Este 0 994.7 0.5 99
2018-11-16 07:00:00 8.7 6 Este 7 Este 0 994.3 -0.2 98
2018-11-16 06:00:00 9.4 4 Este 6 Nordeste 0 994.3 -0.3 98
2018-11-16 05:00:00 10 3 Este 5 Este 0 994.2 -0.7 97
2018-11-16 04:00:00 10.8 3 Sudeste 6 Sudeste 0 994.5 -1 97
2018-11-16 03:00:00 10.5 6 Este 8 Nordeste 0 994.6 -0.7 96
2018-11-16 02:00:00 11.3 0 Calma 6 Sur 0 994.9 -0.2 95
2018-11-16 01:00:00 11.6 0 Calma 5 Sudoeste 0 995.5 1.1 94
2018-11-16 00:00:00 12.1 4 Oeste 7 Sur 0 995.3 1.2 93
2018-11-15 23:00:00 13.1 3 Sur 10 Sur 0 995.1 1.3 90
2018-11-15 22:00:00 13.7 3 Nordeste 6 Sudoeste 0 994.4 1.2 88
2018-11-15 21:00:00 14.3 4 Sudoeste 9 Nordeste 0 994.1 1.2 85
2018-11-15 20:00:00 15.6 4 Sudeste 8 Este 0 993.8 1.1 79
2018-11-15 19:00:00 16.7 4 Sudeste 7 Sudeste 0 993.2 0.5 76
2018-11-15 18:00:00 18.3 4 Este 13 Este 0 992.9 -0.1 72
2018-11-15 17:00:00 19.5 9 Este 19 Este 0 992.7 -0.5 66
2018-11-15 16:00:00 21 10 Este 16 Nordeste 0 992.7 -1.1 59
2018-11-15 15:00:00 20.6 11 Este 19 Este 0 993 -1.7 59
2018-11-15 14:00:00 20 11 Este 19 Este 0 993.2 -1.3 62
2018-11-15 13:00:00 19.1 10 Este 15 Este 0 993.8 -0.5 67
2018-11-15 12:00:00 17.9 12 Este 19 Este 0 994.7 1 71
2018-11-15 11:00:00 16.3 13 Este 19 Este 0 994.5 1.7 78
2018-11-15 10:00:00 14.1 10 Este 14 Este 0 994.3 1.9 87
2018-11-15 09:00:00 12 4 Sudeste 17 Este 0 993.7 1.4 94
2018-11-15 08:00:00 12 13 Este 20 Este 0 992.8 0.6 94
2018-11-15 07:00:00 12.3 12 Este 19 Este 0 992.4 0.3 93
2018-11-15 06:00:00 13.1 13 Este 23 Este 0 992.3 0 91
2018-11-15 05:00:00 13.1 17 Este 24 Este 0 992.2 -0.6 92
2018-11-15 04:00:00 13.2 15 Este 21 Este 0 992.1 -0.9 93
2018-11-15 03:00:00 13.1 9 Este 13 Este 0 992.3 -1.2 95
2018-11-15 02:00:00 12.5 3 Nordeste 8 Este 0 992.8 -1 96
2018-11-15 01:00:00 12.1 7 Este 8 Este 0 993 -0.9 95
2018-11-15 00:00:00 12.2 4 Nordeste 5 Nordeste 0 993.5 -0.5 93
2018-11-14 23:00:00 13.5 0 Calma 8 Sur 0 993.8 -0.3 90
2018-11-14 22:00:00 14.4 5 Oeste 11 Este 0 993.9 -0.4 88
2018-11-14 21:00:00 15.4 6 Sudeste 17 Este 0 994 -0.1 84
2018-11-14 20:00:00 15.3 13 Este 15 Este 0 994.1 -0.3 85
2018-11-14 19:00:00 16.2 7 Este 9 Este 0 994.3 -0.6 81
2018-11-14 18:00:00 17.7 6 Nordeste 14 Este 0 994.1 -1.2 77
2018-11-14 17:00:00 18.6 12 Nordeste 19 Este 0 994.4 -1.5 71
2018-11-14 16:00:00 18.6 14 Este 25 Nordeste 0 994.9 -1.9 68
2018-11-14 15:00:00 20.3 13 Este 24 Este 0 995.3 -2.5 66
2018-11-14 14:00:00 19.9 13 Este 22 Nordeste 0 995.9 -2.2 64
2018-11-14 13:00:00 19 17 Este 26 Este 0 996.8 -1.6 66
2018-11-14 12:00:00 17.6 16 Este 24 Este 0 997.8 -0.6 74
2018-11-14 11:00:00 15.4 15 Este 24 Este 0 998.1 0.1 85
2018-11-14 10:00:00 12.6 9 Este 13 Este 0 998.4 0.5 100
2018-11-14 09:00:00 9.8 3 Noroeste 6 Este 0 998.4 0.2 100
2018-11-14 08:00:00 9.4 4 Este 6 Este 0 998 -0.2 100
2018-11-14 07:00:00 9.6 2 Este 8 Este 0 997.9 -0.8 99
2018-11-14 06:00:00 8.9 3 Este 5 Este 0 998.2 -0.6 100
2018-11-14 05:00:00 9.1 2 Este 4 Este 0 998.2 -0.8 98
2018-11-14 04:00:00 9.7 2 Este 5 Este 0 998.7 -0.9 98
2018-11-14 03:00:00 10 4 Este 5 Nordeste 0 998.8 -0.9 98
2018-11-14 02:00:00 10.3 4 Este 5 Este 0 999 -1.1 98
2018-11-14 01:00:00 10.8 2 Noroeste 4 Norte 0 999.6 -0.3 98
2018-11-14 00:00:00 11.3 2 Este 4 Este 0 999.7 -0.1 95
2018-11-13 23:00:00 12.5 0 Calma 4 Noroeste 0 1000.1 0.4 94
2018-11-13 22:00:00 13.3 3 Oeste 6 Noroeste 0 999.9 0.6 93
2018-11-13 21:00:00 13.6 3 Oeste 5 Sudoeste 0 999.8 0.9 91
2018-11-13 20:00:00 14.7 0 Calma 8 Oeste 0 999.7 0.5 89
2018-11-13 19:00:00 16.1 5 Sudoeste 6 Sudoeste 0 999.3 0.2 84
2018-11-13 18:00:00 17.6 2 Oeste 5 Norte 0 998.9 -0.6 79
2018-11-13 17:00:00 18.4 4 Norte 8 Norte 0 999.2 -0.8 73
2018-11-13 16:00:00 18.1 4 Nordeste 14 Este 0 999.1 -1.5 72
2018-11-13 15:00:00 17.8 5 Este 17 Este 0 999.5 -1.6 73
2018-11-13 14:00:00 17.1 9 Sudeste 18 Este 0 1000 -1 76
2018-11-13 13:00:00 15.4 9 Sudeste 17 Este 0 1000.6 -0.3 83
2018-11-13 12:00:00 14.1 9 Este 17 Este 0 1001.1 0.7 88
2018-11-13 11:00:00 13.3 10 Nordeste 15 Nordeste 0 1001 1.3 92
2018-11-13 10:00:00 12.1 3 Nordeste 5 Norte 0 1000.9 1.3 99
2018-11-13 09:00:00 11.2 3 Nordeste 5 Norte 0 1000.4 1.1 99
2018-11-13 08:00:00 10.8 2 Este 5 Noroeste 0 999.7 0.9 99
2018-11-13 07:00:00 10.4 3 Oeste 9 Oeste 0 999.6 0.5 99
2018-11-13 06:00:00 10.3 0 Calma 4 Oeste 0 999.3 0.2 99
2018-11-13 05:00:00 9.4 2 Sudeste 6 Noroeste 0 998.8 0 99
2018-11-13 04:00:00 9.2 6 Noroeste 10 Noroeste 0 999.1 0.4 97
2018-11-13 03:00:00 10.2 4 Sudoeste 8 Oeste 0 999.1 0.9 98
2018-11-13 02:00:00 9.6 2 Oeste 5 Sudoeste 0 998.8 0.8 97
2018-11-13 01:00:00 10.2 4 Sudoeste 9 Oeste 0 998.7 1.2 98
2018-11-13 00:00:00 10.4 5 Oeste 10 Oeste 0 998.2 1.1 98
2018-11-12 23:00:00 9.6 6 Noroeste 8 Noroeste 0 998 1.3 96
2018-11-12 22:00:00 11.3 4 Sur 6 Oeste 0 997.5 1.8 96
2018-11-12 21:00:00 11.8 3 Oeste 6 Oeste 0 997.1 1.8 94
2018-11-12 20:00:00 12.1 3 Sudeste 5 Sudeste 0 996.7 2 92
2018-11-12 19:00:00 13.4 3 Sudoeste 4 Sur 0 995.7 1.5 87
2018-11-12 18:00:00 14.5 3 Sudoeste 11 Oeste 0 995.3 1.6 83
2018-11-12 17:00:00 14.7 8 Oeste 12 Oeste 0 994.7 1.3 82
2018-11-12 16:00:00 14.7 8 Oeste 15 Oeste 0 994.2 0.5 85
2018-11-12 15:00:00 14.8 7 Oeste 13 Oeste 0 993.7 0.1 86
2018-11-12 14:00:00 14 6 Noroeste 13 Oeste 0 993.4 0.1 88
2018-11-12 13:00:00 13.5 8 Noroeste 12 Noroeste 0 993.7 0.8 91
2018-11-12 12:00:00 13 3 Noroeste 7 Noroeste 0 993.6 2 93
2018-11-12 11:00:00 12.7 4 Noroeste 11 Noroeste 0 993.3 1.8 93
2018-11-12 10:00:00 12.4 3 Norte 11 Norte 0 992.9 2 94
2018-11-12 09:00:00 12.1 5 Norte 9 Norte 0 991.6 1.4 97
2018-11-12 08:00:00 12.1 8 Noroeste 13 Oeste 0 991.5 1.6 97
2018-11-12 07:00:00 12 4 Oeste 11 Oeste 0 990.9 1.2 97
2018-11-12 06:00:00 12 7 Oeste 16 Noroeste 0 990.2 1 97
2018-11-12 05:00:00 12.5 5 Oeste 10 Oeste 0 989.9 1.1 98
2018-11-12 04:00:00 12.6 3 Oeste 11 Nordeste 0.2 989.7 0.5 98
2018-11-12 03:00:00 12.5 6 Norte 15 Nordeste 3.4 989.2 0.5 98
2018-11-12 02:00:00 12.5 7 Nordeste 12 Nordeste 0.4 988.8 -0.8 98
2018-11-12 01:00:00 12.5 3 Sudeste 10 Este 0.6 989.2 0 97
2018-11-12 00:00:00 12.4 11 Este 17 Sudeste 1.4 988.7 -1.2 97
2018-11-11 23:00:00 12.2 10 Sudeste 22 Sudeste 1 989.6 -0.4 97
2018-11-11 22:00:00 12.2 7 Sudeste 14 Este 1.6 989.2 0.2 98
2018-11-11 21:00:00 11.8 5 Sudeste 14 Noroeste 3.8 989.9 2.5 97
2018-11-11 20:00:00 11.8 11 Noroeste 49 Noroeste 1.2 990 2.3 93
2018-11-11 19:00:00 15.6 20 Oeste 39 Noroeste 0.6 989 1.1 78
2018-11-11 18:00:00 18.8 20 Sur 34 Sur 0 987.4 -1.1 67
2018-11-11 17:00:00 19.6 17 Sur 37 Sudoeste 0 987.7 -1.7 68
2018-11-11 16:00:00 20.3 18 Sur 40 Sur 0 987.9 -2.7 65
2018-11-11 15:00:00 20.8 16 Sur 36 Sur 0 988.5 -3.4 65
2018-11-11 14:00:00 20.2 15 Sur 34 Sur 0 989.4 -2.9 66
2018-11-11 13:00:00 19.3 17 Sur 30 Sur 0 990.6 -2.3 72
2018-11-11 12:00:00 18.6 14 Sur 30 Sur 0 991.9 -1.1 78
2018-11-11 11:00:00 18 13 Sur 22 Sur 0 992.3 -0.6 83
2018-11-11 10:00:00 16.5 8 Sur 13 Sur 0 992.9 -0.1 91
2018-11-11 09:00:00 14.7 3 Este 8 Sudeste 0 993 -0.3 96
2018-11-11 08:00:00 14.6 3 Sur 15 Sudoeste 0 992.9 -0.5 95
2018-11-11 07:00:00 15 6 Sur 15 Sudoeste 0 993 -0.6 94
2018-11-11 06:00:00 15 6 Sur 14 Sudoeste 0 993.3 -0.6 95
2018-11-11 05:00:00 15.2 4 Sudoeste 14 Sur 0 993.4 -0.8 95
2018-11-11 04:00:00 15.4 5 Sudoeste 16 Sur 0 993.6 -0.6 94
2018-11-11 03:00:00 15.5 6 Sur 19 Sudoeste 0 993.9 -0.5 95
2018-11-11 02:00:00 15.6 4 Sudoeste 14 Sudoeste 1.4 994.2 -0.4 96
2018-11-11 01:00:00 15.7 8 Sur 18 Sur 0.6 994.2 -0.2 94
2018-11-11 00:00:00 15.6 6 Sudoeste 22 Oeste 0 994.4 0.6 95
2018-11-10 23:00:00 15.7 7 Sudoeste 21 Sudoeste 0 994.6 0.8 93
2018-11-10 22:00:00 15.9 6 Sudoeste 18 Oeste 0.6 994.4 0.7 96
2018-11-10 21:00:00 15.8 8 Sur 23 Sur 0.4 993.8 0.2 96
2018-11-10 20:00:00 16 6 Sudoeste 24 Sur 0.2 993.8 0.3 95
2018-11-10 19:00:00 16.6 8 Sudoeste 26 Sudoeste 0 993.7 0.2 89
2018-11-10 18:00:00 16.6 8 Sudoeste 26 Sudoeste 0 993.6 0.2 87
2018-11-10 17:00:00 17.3 10 Sudoeste 30 Sudoeste 0 993.5 -0.1 84
2018-11-10 16:00:00 17.3 7 Sudoeste 30 Sur 0 993.5 -1.1 85
2018-11-10 15:00:00 17.5 11 Sudoeste 39 Sudoeste 0 993.4 -1.6 82
2018-11-10 14:00:00 18.3 13 Sudoeste 35 Sur 0 993.6 -2 74
2018-11-10 13:00:00 17.7 12 Sudoeste 42 Sudoeste 0 994.6 -1.1 75
2018-11-10 12:00:00 16.6 14 Sudoeste 38 Sur 0 995 -0.2 79
2018-11-10 11:00:00 16.7 13 Sudoeste 31 Sudoeste 0 995.6 0.6 76
2018-11-10 10:00:00 15.5 11 Sudoeste 34 Sudoeste 0 995.7 0.2 83
2018-11-10 09:00:00 15.2 9 Sudoeste 27 Sudoeste 0 995.2 -0.6 84
2018-11-10 08:00:00 14.8 9 Sudoeste 28 Sudoeste 0 995 -0.9 85
2018-11-10 07:00:00 14.7 9 Sudoeste 22 Sur 0 995.5 -1.4 84
2018-11-10 06:00:00 14.3 8 Sur 26 Sur 0 995.8 -1.5 84
2018-11-10 05:00:00 14.2 11 Sur 25 Sur 0 995.9 -1.8 84
2018-11-10 04:00:00 14.3 9 Sur 19 Sur 0 996.9 -1.2 84
2018-11-10 03:00:00 14.1 8 Sur 21 Sudoeste 0 997.3 -1.3 82
2018-11-10 02:00:00 14.2 12 Sur 25 Sur 0 997.7 -0.9 81
2018-11-10 01:00:00 14.2 10 Sur 24 Sudoeste 0 998.1 -0.8 80
2018-11-10 00:00:00 14.1 8 Sudoeste 27 Sudoeste 0 998.6 -0.4 80